createdAt,value
2022-10-22T00:00:23.414Z,20.47
2022-10-22T00:01:23.432Z,20.47
2022-10-22T00:02:23.476Z,20.47
2022-10-22T00:03:23.425Z,20.48
2022-10-22T00:04:23.436Z,20.47
2022-10-22T00:05:23.364Z,20.48
2022-10-22T00:06:23.354Z,20.47
2022-10-22T00:07:23.343Z,20.47
2022-10-22T00:08:23.328Z,20.47
2022-10-22T00:09:23.351Z,20.47
2022-10-22T00:10:23.307Z,20.47
2022-10-22T00:11:23.331Z,20.44
2022-10-22T00:12:23.289Z,20.47
2022-10-22T00:13:23.275Z,20.47
2022-10-22T00:14:23.267Z,20.47
2022-10-22T00:15:23.254Z,20.44
2022-10-22T00:16:23.276Z,20.44
2022-10-22T00:17:23.255Z,20.44
2022-10-22T00:18:23.223Z,20.47
2022-10-22T00:19:23.211Z,20.44
2022-10-22T00:20:23.200Z,20.44
2022-10-22T00:21:23.223Z,20.44
2022-10-22T00:22:23.179Z,20.44
2022-10-22T00:23:23.197Z,20.44
2022-10-22T00:24:23.158Z,20.44
2022-10-22T00:25:23.145Z,20.44
2022-10-22T00:26:23.136Z,20.47
2022-10-22T00:27:23.124Z,20.43
2022-10-22T00:28:23.146Z,20.44
2022-10-22T00:29:23.103Z,20.44
2022-10-22T00:30:23.095Z,20.47
2022-10-22T00:31:23.082Z,20.44
2022-10-22T00:32:23.072Z,20.47
2022-10-22T00:33:23.115Z,20.44
2022-10-22T00:34:23.055Z,20.44
2022-10-22T00:35:23.038Z,20.44
2022-10-22T00:36:23.030Z,20.44
2022-10-22T00:37:23.015Z,20.44
2022-10-22T00:38:23.041Z,20.47
2022-10-22T00:39:22.994Z,20.44
2022-10-22T00:40:22.984Z,20.43
2022-10-22T00:41:22.973Z,20.43
2022-10-22T00:42:22.962Z,20.43
2022-10-22T00:43:22.984Z,20.43
2022-10-22T00:44:22.946Z,20.44
2022-10-22T00:45:22.931Z,20.43
2022-10-22T00:46:22.925Z,20.47
2022-10-22T00:47:22.909Z,20.43
2022-10-22T00:48:22.944Z,20.43
2022-10-22T00:49:22.917Z,20.43
2022-10-22T00:50:22.879Z,20.43
2022-10-22T00:51:22.866Z,20.43
2022-10-22T00:52:22.856Z,20.43
2022-10-22T00:53:22.884Z,20.43
2022-10-22T00:54:22.839Z,20.44
2022-10-22T00:55:22.822Z,20.44
2022-10-22T00:56:22.811Z,20.44
2022-10-22T00:57:22.801Z,20.44
2022-10-22T00:58:22.823Z,20.43
2022-10-22T00:59:22.779Z,20.43
2022-10-22T01:00:22.768Z,20.44
2022-10-22T01:01:22.878Z,20.44
2022-10-22T01:02:22.749Z,20.44
2022-10-22T01:03:22.769Z,20.43
2022-10-22T01:04:22.728Z,20.43
2022-10-22T01:05:22.740Z,20.43
2022-10-22T01:06:22.707Z,20.43
2022-10-22T01:07:22.692Z,20.43
2022-10-22T01:08:22.716Z,20.44
2022-10-22T01:09:22.671Z,20.43
2022-10-22T01:10:22.664Z,20.43
2022-10-22T01:11:22.649Z,20.44
2022-10-22T01:12:22.641Z,20.43
2022-10-22T01:13:22.662Z,20.43
2022-10-22T01:14:22.620Z,20.44
2022-10-22T01:15:22.610Z,20.43
2022-10-22T01:16:22.600Z,20.44
2022-10-22T01:17:22.623Z,20.41
2022-10-22T01:18:22.611Z,20.41
2022-10-22T01:19:22.563Z,20.43
2022-10-22T01:20:22.555Z,20.43
2022-10-22T01:21:22.568Z,20.41
2022-10-22T01:22:22.534Z,20.41
2022-10-22T01:23:22.554Z,20.43
2022-10-22T01:24:22.512Z,20.43
2022-10-22T01:25:22.499Z,20.43
2022-10-22T01:27:22.480Z,20.43
2022-10-22T01:28:22.503Z,20.41
2022-10-22T01:29:22.487Z,20.41
2022-10-22T01:30:22.447Z,20.41
2022-10-22T01:31:22.435Z,20.43
2022-10-22T01:32:22.425Z,20.41
2022-10-22T01:33:22.414Z,20.43
2022-10-22T01:34:22.438Z,20.41
2022-10-22T01:35:22.453Z,20.41
2022-10-22T01:36:22.384Z,20.41
2022-10-22T01:37:22.395Z,20.43
2022-10-22T01:38:22.363Z,20.41
2022-10-22T01:39:22.386Z,20.41
2022-10-22T01:40:22.341Z,20.41
2022-10-22T01:41:22.330Z,20.41
2022-10-22T01:42:22.317Z,20.40
2022-10-22T01:43:22.307Z,20.41
2022-10-22T01:44:22.360Z,20.40
2022-10-22T01:45:22.289Z,20.41
2022-10-22T01:46:22.276Z,20.41
2022-10-22T01:47:22.298Z,20.41
2022-10-22T01:48:22.257Z,20.41
2022-10-22T01:49:22.242Z,20.41
2022-10-22T01:50:22.231Z,20.41
2022-10-22T01:51:22.222Z,20.40
2022-10-22T01:52:22.241Z,20.41
2022-10-22T01:53:22.225Z,20.41
2022-10-22T01:54:22.218Z,20.40
2022-10-22T01:55:22.181Z,20.41
2022-10-22T01:56:22.166Z,20.40
2022-10-22T01:57:22.161Z,20.41
2022-10-22T01:58:22.145Z,20.40
2022-10-22T01:59:22.166Z,20.40
2022-10-22T02:00:22.126Z,20.41
2022-10-22T02:01:22.113Z,20.41
2022-10-22T02:02:22.104Z,20.41
2022-10-22T02:03:23.723Z,20.41
2022-10-22T02:04:22.085Z,20.40
2022-10-22T02:05:22.072Z,20.40
2022-10-22T02:06:22.059Z,20.40
2022-10-22T02:07:22.050Z,20.40
2022-10-22T02:08:22.067Z,20.40
2022-10-22T02:09:22.089Z,20.41
2022-10-22T02:10:22.015Z,20.40
2022-10-22T02:11:22.005Z,20.41
2022-10-22T02:12:21.995Z,20.40
2022-10-22T02:13:21.986Z,20.40
2022-10-22T02:14:22.003Z,20.40
2022-10-22T02:15:21.964Z,20.39
2022-10-22T02:16:21.950Z,20.40
2022-10-22T02:17:21.942Z,20.39
2022-10-22T02:18:21.929Z,20.40
2022-10-22T02:19:21.950Z,20.41
2022-10-22T02:20:21.933Z,20.40
2022-10-22T02:21:21.910Z,20.40
2022-10-22T02:22:21.912Z,20.41
2022-10-22T02:23:21.881Z,20.40
2022-10-22T02:24:21.896Z,20.41
2022-10-22T02:25:21.884Z,20.41
2022-10-22T02:26:21.855Z,20.40
2022-10-22T02:27:25.870Z,20.40
2022-10-22T02:28:22.820Z,20.40
2022-10-22T02:29:21.844Z,20.40
2022-10-22T02:30:21.800Z,20.40
2022-10-22T02:31:21.829Z,20.40
2022-10-22T02:32:21.779Z,20.39
2022-10-22T02:33:21.769Z,20.40
2022-10-22T02:34:21.796Z,20.39
2022-10-22T02:35:21.746Z,20.40
2022-10-22T02:36:21.736Z,20.40
2022-10-22T02:37:21.728Z,20.40
2022-10-22T02:38:21.713Z,20.40
2022-10-22T02:39:21.713Z,20.40
2022-10-22T02:40:21.723Z,20.39
2022-10-22T02:41:21.709Z,20.40
2022-10-22T02:42:21.670Z,20.39
2022-10-22T02:43:21.662Z,20.40
2022-10-22T02:44:21.648Z,20.40
2022-10-22T02:45:21.675Z,20.40
2022-10-22T02:46:21.627Z,20.39
2022-10-22T02:47:21.618Z,20.40
2022-10-22T02:49:21.606Z,20.39
2022-10-22T02:50:21.616Z,20.39
2022-10-22T02:51:21.575Z,20.39
2022-10-22T02:52:21.561Z,20.40
2022-10-22T02:53:21.552Z,20.40
2022-10-22T02:54:21.541Z,20.39
2022-10-22T02:55:21.564Z,20.39
2022-10-22T02:56:21.517Z,20.39
2022-10-22T02:58:21.498Z,20.39
2022-10-22T02:59:21.491Z,20.39
2022-10-22T03:00:21.505Z,20.39
2022-10-22T03:01:21.504Z,20.39
2022-10-22T03:02:21.452Z,20.39
2022-10-22T03:03:21.442Z,20.39
2022-10-22T03:04:21.433Z,20.39
2022-10-22T03:05:21.451Z,20.39
2022-10-22T03:06:21.523Z,20.39
2022-10-22T03:07:21.431Z,20.39
2022-10-22T03:08:21.386Z,20.39
2022-10-22T03:09:24.091Z,20.40
2022-10-22T03:10:21.367Z,20.37
2022-10-22T03:11:21.354Z,20.39
2022-10-22T03:12:21.372Z,20.39
2022-10-22T03:13:21.356Z,20.37
2022-10-22T03:14:21.347Z,20.41
2022-10-22T03:15:21.363Z,20.39
2022-10-22T03:16:21.303Z,20.37
2022-10-22T03:17:21.288Z,20.39
2022-10-22T03:18:21.281Z,20.39
2022-10-22T03:19:21.301Z,20.37
2022-10-22T03:20:21.258Z,20.37
2022-10-22T03:21:21.244Z,20.39
2022-10-22T03:22:21.237Z,20.36
2022-10-22T03:23:21.223Z,20.39
2022-10-22T03:24:21.215Z,20.39
2022-10-22T03:25:21.227Z,20.39
2022-10-22T03:26:21.191Z,20.39
2022-10-22T03:27:21.205Z,20.39
2022-10-22T03:28:21.170Z,20.39
2022-10-22T03:29:21.179Z,20.37
2022-10-22T03:30:21.148Z,20.39
2022-10-22T03:31:21.135Z,20.39
2022-10-22T03:32:21.154Z,20.37
2022-10-22T03:33:21.113Z,20.37
2022-10-22T03:34:21.129Z,20.37
2022-10-22T03:35:21.090Z,20.39
2022-10-22T03:36:21.081Z,20.37
2022-10-22T03:37:21.068Z,20.39
2022-10-22T03:38:21.057Z,20.39
2022-10-22T03:39:21.076Z,20.37
2022-10-22T03:40:21.038Z,20.37
2022-10-22T03:41:21.050Z,20.39
2022-10-22T03:42:21.019Z,20.37
2022-10-22T03:43:21.002Z,20.37
2022-10-22T03:44:20.991Z,20.37
2022-10-22T03:45:21.002Z,20.37
2022-10-22T03:46:21.000Z,20.37
2022-10-22T03:47:20.958Z,20.37
2022-10-22T03:48:20.948Z,20.37
2022-10-22T03:49:20.937Z,20.36
2022-10-22T03:50:20.926Z,20.39
2022-10-22T03:51:20.941Z,20.37
2022-10-22T03:52:20.907Z,20.39
2022-10-22T03:53:20.893Z,20.36
2022-10-22T03:54:20.885Z,20.37
2022-10-22T03:55:20.870Z,20.39
2022-10-22T03:56:20.894Z,20.37
2022-10-22T03:57:20.850Z,20.37
2022-10-22T03:58:20.842Z,20.36
2022-10-22T03:59:20.827Z,20.37
2022-10-22T04:00:20.817Z,20.37
2022-10-22T04:01:20.926Z,20.39
2022-10-22T04:02:20.796Z,20.36
2022-10-22T04:03:20.785Z,20.37
2022-10-22T04:04:20.776Z,20.37
2022-10-22T04:05:20.765Z,20.37
2022-10-22T04:06:20.782Z,20.37
2022-10-22T04:07:20.767Z,20.36
2022-10-22T04:08:20.731Z,20.37
2022-10-22T04:09:20.719Z,20.39
2022-10-22T04:10:20.713Z,20.37
2022-10-22T04:11:20.698Z,20.37
2022-10-22T04:12:20.714Z,20.36
2022-10-22T04:13:20.703Z,20.36
2022-10-22T04:14:20.665Z,20.37
2022-10-22T04:15:20.655Z,20.37
2022-10-22T04:16:20.646Z,20.37
2022-10-22T04:17:20.656Z,20.37
2022-10-22T04:18:20.649Z,20.36
2022-10-22T04:19:20.610Z,20.37
2022-10-22T04:20:20.599Z,20.36
2022-10-22T04:21:20.613Z,20.37
2022-10-22T04:22:20.580Z,20.36
2022-10-22T04:23:20.567Z,20.36
2022-10-22T04:24:20.558Z,20.37
2022-10-22T04:25:20.543Z,20.37
2022-10-22T04:26:20.564Z,20.36
2022-10-22T04:27:20.521Z,20.37
2022-10-22T04:28:20.510Z,20.36
2022-10-22T04:29:20.500Z,20.36
2022-10-22T04:30:20.490Z,20.37
2022-10-22T04:31:20.506Z,20.39
2022-10-22T04:32:20.470Z,20.37
2022-10-22T04:33:20.480Z,20.37
2022-10-22T04:34:20.451Z,20.36
2022-10-22T04:35:20.471Z,20.36
2022-10-22T04:36:20.455Z,20.37
2022-10-22T04:37:20.411Z,20.36
2022-10-22T04:38:20.400Z,20.36
2022-10-22T04:39:20.389Z,20.37
2022-10-22T04:40:20.377Z,20.36
2022-10-22T04:41:20.394Z,20.36
2022-10-22T04:42:20.357Z,20.37
2022-10-22T04:43:20.369Z,20.36
2022-10-22T04:44:20.335Z,20.37
2022-10-22T04:45:20.322Z,20.36
2022-10-22T04:46:20.311Z,20.36
2022-10-22T04:47:20.300Z,20.36
2022-10-22T04:48:20.315Z,20.36
2022-10-22T04:49:20.327Z,20.36
2022-10-22T04:50:20.270Z,20.37
2022-10-22T04:51:20.255Z,20.36
2022-10-22T04:52:20.244Z,20.36
2022-10-22T04:53:20.234Z,20.36
2022-10-22T04:54:20.252Z,20.34
2022-10-22T04:55:20.267Z,20.36
2022-10-22T04:56:20.202Z,20.36
2022-10-22T04:57:20.188Z,20.36
2022-10-22T04:58:20.178Z,20.34
2022-10-22T04:59:20.193Z,20.34
2022-10-22T05:00:20.165Z,20.36
2022-10-22T05:01:20.189Z,20.34
2022-10-22T05:02:20.135Z,20.36
2022-10-22T05:03:20.123Z,20.36
2022-10-22T05:04:20.137Z,20.36
2022-10-22T05:05:20.125Z,20.34
2022-10-22T05:06:20.090Z,20.36
2022-10-22T05:07:20.077Z,20.34
2022-10-22T05:08:20.070Z,20.34
2022-10-22T05:09:20.141Z,20.34
2022-10-22T05:10:20.046Z,20.36
2022-10-22T05:11:20.033Z,20.36
2022-10-22T05:12:20.050Z,20.34
2022-10-22T05:13:20.010Z,20.36
2022-10-22T05:14:20.002Z,20.34
2022-10-22T05:15:19.989Z,20.34
2022-10-22T05:16:19.980Z,20.36
2022-10-22T05:17:19.970Z,20.36
2022-10-22T05:18:21.892Z,20.34
2022-10-22T05:19:19.970Z,20.34
2022-10-22T05:20:19.935Z,20.34
2022-10-22T05:21:19.955Z,20.34
2022-10-22T05:22:19.913Z,20.36
2022-10-22T05:23:19.901Z,20.36
2022-10-22T05:24:19.920Z,20.34
2022-10-22T05:25:19.878Z,20.36
2022-10-22T05:26:19.892Z,20.36
2022-10-22T05:28:19.844Z,20.34
2022-10-22T05:29:19.833Z,20.32
2022-10-22T05:30:19.824Z,20.34
2022-10-22T05:31:19.838Z,20.34
2022-10-22T05:32:19.825Z,20.36
2022-10-22T05:33:23.991Z,20.34
2022-10-22T05:34:19.778Z,20.36
2022-10-22T05:35:19.769Z,20.34
2022-10-22T05:36:19.757Z,20.34
2022-10-22T05:37:19.798Z,20.34
2022-10-22T05:38:19.736Z,20.34
2022-10-22T05:39:19.726Z,20.34
2022-10-22T05:40:30.378Z,20.34
2022-10-22T05:41:20.699Z,20.34
2022-10-22T05:42:19.693Z,20.34
2022-10-22T05:43:19.678Z,20.34
2022-10-22T05:44:19.670Z,20.32
2022-10-22T05:45:19.685Z,20.34
2022-10-22T05:46:22.471Z,20.34
2022-10-22T05:47:19.634Z,20.34
2022-10-22T05:48:19.656Z,20.32
2022-10-22T05:49:19.614Z,20.32
2022-10-22T05:50:19.631Z,20.36
2022-10-22T05:51:19.592Z,20.32
2022-10-22T05:52:19.580Z,20.36
2022-10-22T05:53:19.591Z,20.34
2022-10-22T05:54:19.558Z,20.34
2022-10-22T05:55:19.575Z,20.34
2022-10-22T05:56:19.539Z,20.34
2022-10-22T05:57:19.528Z,20.34
2022-10-22T05:58:19.515Z,20.34
2022-10-22T05:59:19.504Z,20.34
2022-10-22T06:00:19.522Z,20.34
2022-10-22T06:01:19.481Z,20.31
2022-10-22T06:02:19.544Z,20.31
2022-10-22T06:03:19.461Z,20.34
2022-10-22T06:04:19.447Z,20.34
2022-10-22T06:05:19.464Z,20.32
2022-10-22T06:06:19.429Z,20.34
2022-10-22T06:07:19.452Z,20.34
2022-10-22T06:08:19.405Z,20.34
2022-10-22T06:09:19.416Z,20.34
2022-10-22T06:10:19.382Z,20.36
2022-10-22T06:11:19.377Z,20.34
2022-10-22T06:12:19.389Z,20.34
2022-10-22T06:13:19.349Z,20.34
2022-10-22T06:14:19.337Z,20.34
2022-10-22T06:15:19.326Z,20.34
2022-10-22T06:16:19.316Z,20.34
2022-10-22T06:17:19.333Z,20.34
2022-10-22T06:18:19.295Z,20.32
2022-10-22T06:19:19.282Z,20.34
2022-10-22T06:20:19.273Z,20.32
2022-10-22T06:21:19.260Z,20.32
2022-10-22T06:22:19.277Z,20.32
2022-10-22T06:23:19.239Z,20.31
2022-10-22T06:24:19.227Z,20.32
2022-10-22T06:25:19.239Z,20.32
2022-10-22T06:26:19.233Z,20.32
2022-10-22T06:27:19.206Z,20.34
2022-10-22T06:28:19.251Z,20.34
2022-10-22T06:29:19.171Z,20.32
2022-10-22T06:30:19.163Z,20.34
2022-10-22T06:31:19.177Z,20.34
2022-10-22T06:32:19.142Z,20.34
2022-10-22T06:33:19.131Z,20.32
2022-10-22T06:34:19.160Z,20.32
2022-10-22T06:35:19.109Z,20.34
2022-10-22T06:36:19.128Z,20.32
2022-10-22T06:37:19.111Z,20.32
2022-10-22T06:38:19.081Z,20.32
2022-10-22T06:39:19.064Z,20.34
2022-10-22T06:40:19.060Z,20.32
2022-10-22T06:41:19.066Z,20.32
2022-10-22T06:42:19.062Z,20.34
2022-10-22T06:43:19.023Z,20.34
2022-10-22T06:44:19.012Z,20.32
2022-10-22T06:45:18.999Z,20.32
2022-10-22T06:46:20.097Z,20.34
2022-10-22T06:47:18.976Z,20.32
2022-10-22T06:48:18.968Z,20.32
2022-10-22T06:49:18.953Z,20.34
2022-10-22T06:50:18.945Z,20.32
2022-10-22T06:51:18.957Z,20.32
2022-10-22T06:52:18.946Z,20.32
2022-10-22T06:53:21.933Z,20.34
2022-10-22T06:54:18.900Z,20.31
2022-10-22T06:55:18.888Z,20.34
2022-10-22T06:56:18.876Z,20.32
2022-10-22T06:57:18.914Z,20.32
2022-10-22T06:58:18.858Z,20.34
2022-10-22T06:59:18.871Z,20.34
2022-10-22T07:00:18.892Z,20.32
2022-10-22T07:01:18.896Z,20.32
2022-10-22T07:02:18.817Z,20.32
2022-10-22T07:03:18.802Z,20.34
2022-10-22T07:04:18.823Z,20.34
2022-10-22T07:05:18.779Z,20.34
2022-10-22T07:06:18.775Z,20.32
2022-10-22T07:07:18.758Z,20.32
2022-10-22T07:08:18.747Z,20.32
2022-10-22T07:10:18.729Z,20.32
2022-10-22T07:11:18.713Z,20.34
2022-10-22T07:12:18.706Z,20.32
2022-10-22T07:13:18.743Z,20.34
2022-10-22T07:14:18.685Z,20.34
2022-10-22T07:15:18.673Z,20.34
2022-10-22T07:16:18.662Z,20.34
2022-10-22T07:17:18.649Z,20.32
2022-10-22T07:18:18.667Z,20.31
2022-10-22T07:19:18.653Z,20.32
2022-10-22T07:20:18.619Z,20.32
2022-10-22T07:21:18.612Z,20.32
2022-10-22T07:22:18.598Z,20.34
2022-10-22T07:23:18.583Z,20.34
2022-10-22T07:24:18.604Z,20.36
2022-10-22T07:25:18.560Z,20.36
2022-10-22T07:26:18.553Z,20.37
2022-10-22T07:27:18.539Z,20.39
2022-10-22T07:28:18.532Z,20.40
2022-10-22T07:29:18.567Z,20.40
2022-10-22T07:30:18.512Z,20.41
2022-10-22T07:31:18.497Z,20.44
2022-10-22T07:32:22.860Z,20.47
2022-10-22T07:33:19.478Z,20.48
2022-10-22T07:34:21.525Z,20.50
2022-10-22T07:35:18.454Z,20.51
2022-10-22T07:36:18.473Z,20.52
2022-10-22T07:37:18.433Z,20.56
2022-10-22T07:38:18.422Z,20.56
2022-10-22T07:39:18.409Z,20.58
2022-10-22T07:40:18.400Z,20.60
2022-10-22T07:41:18.415Z,20.60
2022-10-22T07:42:18.425Z,20.62
2022-10-22T07:43:18.366Z,20.63
2022-10-22T07:44:18.362Z,20.65
2022-10-22T07:45:18.368Z,20.66
2022-10-22T07:46:18.364Z,20.69
2022-10-22T07:47:18.324Z,20.70
2022-10-22T07:48:18.318Z,20.70
2022-10-22T07:49:18.302Z,20.75
2022-10-22T07:50:18.293Z,20.75
2022-10-22T07:51:18.310Z,20.78
2022-10-22T07:52:18.270Z,20.80
2022-10-22T07:53:18.284Z,20.81
2022-10-22T07:54:18.251Z,20.82
2022-10-22T07:55:18.237Z,20.84
2022-10-22T07:56:18.229Z,20.87
2022-10-22T07:57:18.216Z,20.90
2022-10-22T07:58:18.241Z,20.90
2022-10-22T07:59:18.197Z,20.90
2022-10-22T08:00:20.480Z,20.92
2022-10-22T08:01:19.250Z,20.93
2022-10-22T08:02:18.165Z,20.93
2022-10-22T08:03:18.153Z,20.97
2022-10-22T08:04:18.170Z,20.97
2022-10-22T08:05:18.129Z,20.99
2022-10-22T08:06:18.121Z,20.97
2022-10-22T08:07:18.171Z,20.99
2022-10-22T08:08:18.100Z,21.02
2022-10-22T08:09:18.114Z,21.00
2022-10-22T08:10:18.080Z,21.00
2022-10-22T08:11:18.064Z,21.02
2022-10-22T08:12:18.059Z,21.03
2022-10-22T08:13:18.043Z,21.03
2022-10-22T08:14:18.061Z,21.02
2022-10-22T08:15:18.047Z,21.03
2022-10-22T08:16:18.012Z,21.03
2022-10-22T08:17:18.023Z,21.03
2022-10-22T08:18:17.992Z,21.05
2022-10-22T08:19:17.978Z,21.05
2022-10-22T08:20:17.967Z,21.06
2022-10-22T08:21:17.983Z,21.05
2022-10-22T08:22:17.948Z,21.05
2022-10-22T08:23:17.936Z,21.06
2022-10-22T08:24:17.928Z,21.05
2022-10-22T08:25:17.914Z,21.05
2022-10-22T08:26:17.933Z,21.05
2022-10-22T08:27:17.894Z,21.06
2022-10-22T08:28:21.147Z,21.05
2022-10-22T08:29:17.871Z,21.05
2022-10-22T08:30:17.861Z,21.05
2022-10-22T08:31:17.887Z,21.05
2022-10-22T08:32:17.941Z,21.05
2022-10-22T08:33:17.909Z,21.05
2022-10-22T08:34:17.820Z,21.05
2022-10-22T08:35:17.836Z,21.03
2022-10-22T08:36:17.801Z,21.06
2022-10-22T08:37:17.786Z,21.05
2022-10-22T08:38:17.807Z,21.05
2022-10-22T08:39:17.763Z,21.03
2022-10-22T08:40:17.759Z,21.03
2022-10-22T08:41:17.746Z,21.05
2022-10-22T08:42:17.730Z,21.03
2022-10-22T08:43:17.749Z,21.05
2022-10-22T08:44:17.710Z,21.03
2022-10-22T08:45:17.703Z,21.05
2022-10-22T08:46:17.691Z,21.05
2022-10-22T08:47:20.065Z,21.03
2022-10-22T08:48:17.694Z,21.03
2022-10-22T08:49:17.687Z,21.03
2022-10-22T08:50:17.674Z,21.03
2022-10-22T08:51:17.643Z,21.02
2022-10-22T08:52:17.626Z,21.03
2022-10-22T08:53:17.628Z,21.05
2022-10-22T08:54:17.603Z,21.03
2022-10-22T08:55:17.619Z,21.02
2022-10-22T08:56:17.582Z,21.03
2022-10-22T08:57:17.604Z,21.03
2022-10-22T08:58:17.566Z,21.00
2022-10-22T08:59:17.549Z,21.03
2022-10-22T09:00:17.565Z,21.02
2022-10-22T09:01:17.529Z,21.02
2022-10-22T09:02:17.519Z,21.03
2022-10-22T09:03:17.507Z,21.02
2022-10-22T09:04:17.498Z,21.03
2022-10-22T09:05:17.534Z,21.03
2022-10-22T09:06:17.474Z,21.03
2022-10-22T09:07:17.491Z,21.03
2022-10-22T09:08:17.461Z,21.03
2022-10-22T09:09:17.572Z,21.05
2022-10-22T09:10:17.433Z,21.05
2022-10-22T09:11:17.420Z,21.05
2022-10-22T09:12:20.191Z,21.05
2022-10-22T09:13:17.401Z,21.06
2022-10-22T09:14:17.407Z,21.05
2022-10-22T09:15:17.379Z,21.06
2022-10-22T09:16:17.402Z,21.05
2022-10-22T09:17:17.361Z,21.07
2022-10-22T09:18:17.348Z,21.07
2022-10-22T09:19:17.335Z,21.07
2022-10-22T09:20:17.326Z,21.09
2022-10-22T09:21:17.365Z,21.09
2022-10-22T09:22:17.306Z,21.11
2022-10-22T09:23:17.293Z,21.11
2022-10-22T09:24:17.284Z,21.11
2022-10-22T09:25:17.270Z,21.12
2022-10-22T09:26:17.289Z,21.12
2022-10-22T09:27:17.249Z,21.12
2022-10-22T09:28:17.241Z,21.12
2022-10-22T09:29:17.229Z,21.14
2022-10-22T09:30:17.220Z,21.14
2022-10-22T09:31:17.234Z,21.14
2022-10-22T09:32:17.197Z,21.15
2022-10-22T09:33:20.251Z,21.15
2022-10-22T09:34:18.173Z,21.17
2022-10-22T09:35:17.164Z,21.17
2022-10-22T09:36:17.184Z,21.18
2022-10-22T09:37:17.165Z,21.17
2022-10-22T09:38:17.133Z,21.18
2022-10-22T09:40:17.113Z,21.20
2022-10-22T09:41:17.126Z,21.20
2022-10-22T09:42:17.092Z,21.20
2022-10-22T09:43:17.079Z,21.20
2022-10-22T09:44:17.069Z,21.20
2022-10-22T09:45:17.058Z,21.21
2022-10-22T09:46:17.077Z,21.21
2022-10-22T09:47:17.036Z,21.21
2022-10-22T09:48:17.027Z,21.22
2022-10-22T09:49:17.013Z,21.21
2022-10-22T09:50:17.090Z,21.22
2022-10-22T09:51:17.025Z,21.22
2022-10-22T09:52:16.985Z,21.22
2022-10-22T09:53:16.995Z,21.24
2022-10-22T09:54:16.988Z,21.22
2022-10-22T09:55:16.950Z,21.22
2022-10-22T09:56:16.939Z,21.24
2022-10-22T09:57:16.927Z,21.22
2022-10-22T09:58:16.917Z,21.22
2022-10-22T09:59:16.934Z,21.24
2022-10-22T10:00:16.898Z,21.22
2022-10-22T10:01:16.885Z,21.21
2022-10-22T10:02:37.107Z,21.21
2022-10-22T10:03:17.977Z,21.22
2022-10-22T10:04:16.961Z,21.22
2022-10-22T10:05:16.842Z,21.22
2022-10-22T10:06:16.834Z,21.22
2022-10-22T10:07:16.832Z,21.21
2022-10-22T10:08:16.814Z,21.21
2022-10-22T10:09:17.026Z,21.21
2022-10-22T10:10:16.790Z,21.22
2022-10-22T10:11:16.778Z,21.22
2022-10-22T10:12:16.771Z,21.21
2022-10-22T10:13:16.757Z,21.21
2022-10-22T10:14:16.748Z,21.22
2022-10-22T10:15:16.762Z,21.21
2022-10-22T10:16:16.723Z,21.20
2022-10-22T10:17:16.735Z,21.22
2022-10-22T10:18:16.701Z,21.20
2022-10-22T10:19:16.737Z,21.21
2022-10-22T10:20:16.779Z,21.21
2022-10-22T10:21:16.674Z,21.20
2022-10-22T10:22:16.659Z,21.21
2022-10-22T10:23:17.395Z,21.21
2022-10-22T10:24:16.640Z,21.21
2022-10-22T10:25:16.682Z,21.20
2022-10-22T10:26:16.622Z,21.21
2022-10-22T10:27:16.608Z,21.20
2022-10-22T10:28:16.596Z,21.21
2022-10-22T10:29:16.589Z,21.21
2022-10-22T10:30:16.657Z,21.21
2022-10-22T10:31:16.590Z,21.21
2022-10-22T10:32:19.820Z,21.21
2022-10-22T10:33:17.542Z,21.21
2022-10-22T10:34:16.536Z,21.21
2022-10-22T10:35:16.526Z,21.22
2022-10-22T10:36:16.539Z,21.22
2022-10-22T10:37:16.502Z,21.22
2022-10-22T10:38:16.515Z,21.22
2022-10-22T10:39:16.483Z,21.22
2022-10-22T10:40:16.468Z,21.24
2022-10-22T10:41:16.481Z,21.25
2022-10-22T10:42:16.447Z,21.25
2022-10-22T10:43:16.466Z,21.25
2022-10-22T10:44:16.426Z,21.27
2022-10-22T10:45:16.415Z,21.29
2022-10-22T10:47:16.393Z,21.27
2022-10-22T10:48:16.411Z,21.29
2022-10-22T10:49:16.373Z,21.29
2022-10-22T10:50:16.395Z,21.29
2022-10-22T10:51:16.354Z,21.30
2022-10-22T10:52:18.958Z,21.29
2022-10-22T10:53:16.329Z,21.29
2022-10-22T10:54:16.320Z,21.30
2022-10-22T10:55:16.308Z,21.30
2022-10-22T10:56:16.324Z,21.32
2022-10-22T10:57:16.312Z,21.32
2022-10-22T10:58:16.276Z,21.30
2022-10-22T10:59:16.266Z,21.30
2022-10-22T11:00:16.253Z,21.33
2022-10-22T11:01:16.305Z,21.32
2022-10-22T11:02:16.258Z,21.32
2022-10-22T11:03:16.223Z,21.30
2022-10-22T11:04:16.211Z,21.32
2022-10-22T11:05:16.201Z,21.32
2022-10-22T11:06:16.188Z,21.32
2022-10-22T11:07:23.314Z,21.33
2022-10-22T11:08:17.168Z,21.32
2022-10-22T11:09:16.248Z,21.32
2022-10-22T11:10:16.149Z,21.32
2022-10-22T11:12:16.127Z,21.32
2022-10-22T11:13:16.139Z,21.30
2022-10-22T11:14:16.130Z,21.32
2022-10-22T11:15:16.095Z,21.33
2022-10-22T11:16:16.082Z,21.30
2022-10-22T11:17:16.073Z,21.32
2022-10-22T11:18:16.060Z,21.32
2022-10-22T11:19:22.680Z,21.32
2022-10-22T11:20:17.039Z,21.32
2022-10-22T11:21:16.031Z,21.29
2022-10-22T11:22:16.018Z,21.30
2022-10-22T11:23:20.984Z,21.30
2022-10-22T11:24:17.024Z,21.30
2022-10-22T11:25:15.987Z,21.29
2022-10-22T11:26:15.975Z,21.27
2022-10-22T11:27:15.967Z,21.29
2022-10-22T11:29:15.999Z,21.25
2022-10-22T11:30:15.931Z,21.27
2022-10-22T11:31:15.930Z,21.27
2022-10-22T11:32:15.936Z,21.25
2022-10-22T11:33:15.903Z,21.25
2022-10-22T11:34:32.527Z,21.25
2022-10-22T11:35:16.882Z,21.24
2022-10-22T11:36:15.867Z,21.25
2022-10-22T11:37:15.886Z,21.24
2022-10-22T11:38:15.848Z,21.24
2022-10-22T11:39:15.839Z,21.24
2022-10-22T11:40:15.825Z,21.22
2022-10-22T11:41:15.817Z,21.24
2022-10-22T11:42:15.832Z,21.22
2022-10-22T11:43:15.793Z,21.22
2022-10-22T11:44:15.784Z,21.24
2022-10-22T11:45:15.816Z,21.22
2022-10-22T11:46:15.763Z,21.22
2022-10-22T11:47:15.780Z,21.22
2022-10-22T11:48:15.741Z,21.24
2022-10-22T11:49:15.729Z,21.21
2022-10-22T11:50:15.718Z,21.21
2022-10-22T11:51:15.710Z,21.22
2022-10-22T11:52:15.725Z,21.21
2022-10-22T11:53:15.716Z,21.21
2022-10-22T11:54:15.676Z,21.21
2022-10-22T11:55:15.665Z,21.21
2022-10-22T11:56:15.653Z,21.20
2022-10-22T11:57:15.643Z,21.21
2022-10-22T11:58:15.661Z,21.20
2022-10-22T11:59:15.623Z,21.20
2022-10-22T12:00:15.613Z,21.18
2022-10-22T12:01:15.653Z,21.20
2022-10-22T12:02:15.589Z,21.20
2022-10-22T12:03:15.581Z,21.20
2022-10-22T12:04:15.601Z,21.18
2022-10-22T12:05:15.560Z,21.18
2022-10-22T12:06:15.798Z,21.18
2022-10-22T12:07:15.539Z,21.20
2022-10-22T12:08:15.898Z,21.18
2022-10-22T12:09:15.604Z,21.18
2022-10-22T12:10:18.334Z,21.17
2022-10-22T12:11:15.523Z,21.18
2022-10-22T12:12:15.516Z,21.17
2022-10-22T12:13:15.472Z,21.17
2022-10-22T12:14:15.464Z,21.17
2022-10-22T12:15:15.451Z,21.15
2022-10-22T12:16:16.483Z,21.17
2022-10-22T12:17:16.488Z,21.17
2022-10-22T12:18:15.419Z,21.15
2022-10-22T12:19:15.406Z,21.15
2022-10-22T12:20:15.396Z,21.15
2022-10-22T12:21:15.388Z,21.15
2022-10-22T12:22:15.379Z,21.15
2022-10-22T12:23:15.391Z,21.14
2022-10-22T12:24:15.355Z,21.14
2022-10-22T12:25:15.343Z,21.14
2022-10-22T12:26:15.332Z,21.14
2022-10-22T12:27:16.569Z,21.12
2022-10-22T12:28:15.339Z,21.14
2022-10-22T12:29:15.300Z,21.14
2022-10-22T12:30:15.293Z,21.12
2022-10-22T12:31:15.303Z,21.12
2022-10-22T12:32:15.269Z,21.11
2022-10-22T12:33:15.278Z,21.12
2022-10-22T12:34:15.248Z,21.12
2022-10-22T12:35:15.237Z,21.12
2022-10-22T12:36:15.253Z,21.11
2022-10-22T12:37:15.215Z,21.11
2022-10-22T12:38:15.204Z,21.12
2022-10-22T12:39:15.192Z,21.11
2022-10-22T12:40:15.185Z,21.11
2022-10-22T12:41:15.198Z,21.11
2022-10-22T12:42:15.162Z,21.09
2022-10-22T12:43:15.150Z,21.09
2022-10-22T12:44:15.139Z,21.09
2022-10-22T12:45:15.129Z,21.09
2022-10-22T12:46:15.146Z,21.07
2022-10-22T12:47:15.106Z,21.09
2022-10-22T12:48:15.099Z,21.09
2022-10-22T12:49:15.133Z,21.07
2022-10-22T12:50:15.076Z,21.09
2022-10-22T12:51:15.064Z,21.07
2022-10-22T12:52:15.055Z,21.07
2022-10-22T12:53:15.048Z,21.06
2022-10-22T12:54:15.064Z,21.06
2022-10-22T12:55:15.020Z,21.06
2022-10-22T12:56:15.010Z,21.06
2022-10-22T12:57:14.998Z,21.06
2022-10-22T12:58:14.988Z,21.05
2022-10-22T12:59:15.004Z,21.06
2022-10-22T13:00:14.971Z,21.06
2022-10-22T13:01:14.972Z,21.06